Lee, Nevada
Current Conditions -  °F | °C
As of 9:56 PM on Sunday 23 Nov 2014 (Local Time) from KEKO Reporting Station
Clear Clear  
Wind Chill: 28°   Ceiling: Unl
Heat Index: 28°   Visibility: 10mi
Dew Point: 23°   Wind: 3mph
Humidity: 81%   Direction: 240°WSW
Pressure: 30.29"   Gusts: NA
Location:  40.8005°N, 115.707°W
Report Text: KEKO 240556Z AUTO 24003KT 10SM CLR M02/M05 A3029 RMK AO2 SLP278 T10221050 10022 21033 53005
Loading
Personal Weather Stations






























Interactive Weather Map New forecast layout! Learn more

10-Day Weather Forecast

Advertisements
Track Severe Weather on mobile